sensor_id;sensor_type;location;lat;lon;timestamp;P1;durP1;ratioP1;P2;durP2;ratioP2
46377;SDS011;32083;47.360;9.650;2022-09-09T04:02:48;3.70;;;2.05;;
46377;SDS011;32083;47.360;9.650;2022-09-09T04:05:15;3.03;;;2.70;;
46377;SDS011;32083;47.360;9.650;2022-09-09T04:07:40;4.63;;;2.80;;
46377;SDS011;32083;47.360;9.650;2022-09-09T04:10:07;4.25;;;2.38;;
46377;SDS011;32083;47.360;9.650;2022-09-09T04:12:33;2.85;;;2.53;;
46377;SDS011;32083;47.360;9.650;2022-09-09T04:14:59;4.93;;;2.67;;
46377;SDS011;32083;47.360;9.650;2022-09-09T04:17:27;3.63;;;2.45;;
46377;SDS011;32083;47.360;9.650;2022-09-09T04:19:53;5.60;;;2.42;;
46377;SDS011;32083;47.360;9.650;2022-09-09T04:22:19;3.42;;;2.83;;
46377;SDS011;32083;47.360;9.650;2022-09-09T04:24:45;7.25;;;3.30;;
46377;SDS011;32083;47.360;9.650;2022-09-09T04:27:11;6.75;;;3.63;;
46377;SDS011;32083;47.360;9.650;2022-09-09T04:29:37;9.30;;;3.88;;
46377;SDS011;32083;47.360;9.650;2022-09-09T04:32:03;6.82;;;3.17;;
46377;SDS011;32083;47.360;9.650;2022-09-09T04:34:30;3.58;;;2.80;;
46377;SDS011;32083;47.360;9.650;2022-09-09T04:36:56;6.70;;;3.08;;
46377;SDS011;32083;47.360;9.650;2022-09-09T04:39:22;15.63;;;3.95;;
46377;SDS011;32083;47.360;9.650;2022-09-09T04:41:48;6.88;;;3.20;;
46377;SDS011;32083;47.360;9.650;2022-09-09T04:44:15;6.68;;;2.65;;
46377;SDS011;32083;47.360;9.650;2022-09-09T04:46:40;6.15;;;2.70;;
46377;SDS011;32083;47.360;9.650;2022-09-09T04:49:06;3.78;;;2.40;;
46377;SDS011;32083;47.360;9.650;2022-09-09T04:51:33;8.23;;;3.47;;
46377;SDS011;32083;47.360;9.650;2022-09-09T04:53:59;4.25;;;2.78;;
46377;SDS011;32083;47.360;9.650;2022-09-09T04:56:25;4.18;;;2.20;;
46377;SDS011;32083;47.360;9.650;2022-09-09T04:58:52;3.63;;;1.85;;
46377;SDS011;32083;47.360;9.650;2022-09-09T05:01:19;4.15;;;2.25;;
46377;SDS011;32083;47.360;9.650;2022-09-09T05:03:49;2.88;;;1.55;;
46377;SDS011;32083;47.360;9.650;2022-09-09T05:06:17;4.95;;;1.75;;
46377;SDS011;32083;47.360;9.650;2022-09-09T05:08:45;4.00;;;1.90;;
46377;SDS011;32083;47.360;9.650;2022-09-09T05:11:15;1.73;;;1.30;;
46377;SDS011;32083;47.360;9.650;2022-09-09T05:13:49;2.30;;;1.95;;
46377;SDS011;32083;47.360;9.650;2022-09-09T05:16:16;5.70;;;1.85;;
46377;SDS011;32083;47.360;9.650;2022-09-09T05:18:43;4.18;;;1.20;;
46377;SDS011;32083;47.360;9.650;2022-09-09T05:21:10;5.40;;;1.52;;
46377;SDS011;32083;47.360;9.650;2022-09-09T05:23:37;5.25;;;1.65;;
46377;SDS011;32083;47.360;9.650;2022-09-09T05:26:04;2.83;;;1.17;;
46377;SDS011;32083;47.360;9.650;2022-09-09T05:28:33;4.38;;;2.63;;
46377;SDS011;32083;47.360;9.650;2022-09-09T05:31:02;2.58;;;1.30;;
46377;SDS011;32083;47.360;9.650;2022-09-09T05:33:30;2.40;;;1.20;;
46377;SDS011;32083;47.360;9.650;2022-09-09T05:36:00;3.00;;;1.33;;
46377;SDS011;32083;47.360;9.650;2022-09-09T05:38:33;2.92;;;1.38;;
46377;SDS011;32083;47.360;9.650;2022-09-09T05:41:00;3.08;;;1.50;;
46377;SDS011;32083;47.360;9.650;2022-09-09T05:43:27;6.47;;;1.98;;
46377;SDS011;32083;47.360;9.650;2022-09-09T05:46:07;3.22;;;1.13;;
46377;SDS011;32083;47.360;9.650;2022-09-09T05:48:35;2.38;;;0.98;;
46377;SDS011;32083;47.360;9.650;2022-09-09T05:51:03;5.55;;;1.35;;
46377;SDS011;32083;47.360;9.650;2022-09-09T05:53:34;4.15;;;1.30;;
46377;SDS011;32083;47.360;9.650;2022-09-09T05:56:00;2.50;;;1.38;;
46377;SDS011;32083;47.360;9.650;2022-09-09T05:58:31;3.58;;;1.17;;
46377;SDS011;32083;47.360;9.650;2022-09-09T06:01:05;1.75;;;1.30;;
46377;SDS011;32083;47.360;9.650;2022-09-09T06:03:37;3.30;;;1.20;;
46377;SDS011;32083;47.360;9.650;2022-09-09T06:06:05;2.67;;;1.30;;
46377;SDS011;32083;47.360;9.650;2022-09-09T06:08:33;3.05;;;1.60;;
46377;SDS011;32083;47.360;9.650;2022-09-09T06:11:12;3.03;;;1.23;;
46377;SDS011;32083;47.360;9.650;2022-09-09T06:13:43;4.32;;;1.30;;
46377;SDS011;32083;47.360;9.650;2022-09-09T06:16:12;3.67;;;1.27;;
46377;SDS011;32083;47.360;9.650;2022-09-09T06:18:40;2.92;;;0.85;;
46377;SDS011;32083;47.360;9.650;2022-09-09T06:21:08;4.55;;;1.20;;
46377;SDS011;32083;47.360;9.650;2022-09-09T06:23:41;6.80;;;1.73;;
46377;SDS011;32083;47.360;9.650;2022-09-09T06:26:10;2.88;;;1.45;;
46377;SDS011;32083;47.360;9.650;2022-09-09T06:28:37;9.15;;;1.65;;
46377;SDS011;32083;47.360;9.650;2022-09-09T06:31:05;5.68;;;1.10;;
46377;SDS011;32083;47.360;9.650;2022-09-09T06:33:34;4.18;;;1.58;;
46377;SDS011;32083;47.360;9.650;2022-09-09T06:36:07;2.67;;;1.10;;
46377;SDS011;32083;47.360;9.650;2022-09-09T06:38:37;3.22;;;1.10;;
46377;SDS011;32083;47.360;9.650;2022-09-09T06:41:03;3.08;;;1.10;;
46377;SDS011;32083;47.360;9.650;2022-09-09T06:43:30;5.28;;;1.75;;
46377;SDS011;32083;47.360;9.650;2022-09-09T06:46:16;2.10;;;1.25;;
46377;SDS011;32083;47.360;9.650;2022-09-09T06:48:53;2.50;;;1.13;;
46377;SDS011;32083;47.360;9.650;2022-09-09T06:51:21;2.00;;;1.65;;
46377;SDS011;32083;47.360;9.650;2022-09-09T06:53:52;3.80;;;1.10;;
46377;SDS011;32083;47.360;9.650;2022-09-09T06:56:31;3.05;;;1.85;;
46377;SDS011;32083;47.360;9.650;2022-09-09T06:59:00;1.55;;;1.30;;
46377;SDS011;32083;47.360;9.650;2022-09-09T07:01:30;2.95;;;2.17;;
46377;SDS011;32083;47.360;9.650;2022-09-09T07:03:58;4.38;;;1.17;;
46377;SDS011;32083;47.360;9.650;2022-09-09T07:06:28;3.30;;;1.45;;
46377;SDS011;32083;47.360;9.650;2022-09-09T07:08:57;6.65;;;2.03;;
46377;SDS011;32083;47.360;9.650;2022-09-09T07:11:28;7.40;;;2.08;;
46377;SDS011;32083;47.360;9.650;2022-09-09T07:13:57;3.53;;;1.73;;
46377;SDS011;32083;47.360;9.650;2022-09-09T07:16:24;5.88;;;1.83;;
46377;SDS011;32083;47.360;9.650;2022-09-09T07:18:51;4.20;;;1.40;;
46377;SDS011;32083;47.360;9.650;2022-09-09T07:21:17;3.30;;;1.25;;
46377;SDS011;32083;47.360;9.650;2022-09-09T07:23:46;9.18;;;2.10;;
46377;SDS011;32083;47.360;9.650;2022-09-09T07:26:13;2.72;;;1.30;;
46377;SDS011;32083;47.360;9.650;2022-09-09T07:28:41;2.25;;;1.70;;
46377;SDS011;32083;47.360;9.650;2022-09-09T07:31:12;5.32;;;1.40;;
46377;SDS011;32083;47.360;9.650;2022-09-09T07:33:41;2.28;;;0.98;;
46377;SDS011;32083;47.360;9.650;2022-09-09T07:36:10;2.45;;;1.35;;
46377;SDS011;32083;47.360;9.650;2022-09-09T07:38:38;3.65;;;1.02;;
46377;SDS011;32083;47.360;9.650;2022-09-09T07:41:06;5.88;;;1.45;;
46377;SDS011;32083;47.360;9.650;2022-09-09T07:43:40;6.00;;;1.40;;
46377;SDS011;32083;47.360;9.650;2022-09-09T07:46:12;4.25;;;1.70;;
46377;SDS011;32083;47.360;9.650;2022-09-09T07:48:43;2.38;;;1.60;;
46377;SDS011;32083;47.360;9.650;2022-09-09T07:51:11;3.58;;;1.40;;
46377;SDS011;32083;47.360;9.650;2022-09-09T07:53:43;4.10;;;1.73;;
46377;SDS011;32083;47.360;9.650;2022-09-09T07:56:11;4.47;;;1.40;;
46377;SDS011;32083;47.360;9.650;2022-09-09T07:58:39;2.38;;;1.40;;
46377;SDS011;32083;47.360;9.650;2022-09-09T08:01:13;5.53;;;1.77;;
46377;SDS011;32083;47.360;9.650;2022-09-09T08:03:42;5.93;;;1.90;;
46377;SDS011;32083;47.360;9.650;2022-09-09T08:06:10;4.35;;;1.58;;
46377;SDS011;32083;47.360;9.650;2022-09-09T08:08:37;3.17;;;2.38;;
46377;SDS011;32083;47.360;9.650;2022-09-09T08:11:08;4.18;;;1.40;;
46377;SDS011;32083;47.360;9.650;2022-09-09T08:13:40;5.50;;;2.10;;
46377;SDS011;32083;47.360;9.650;2022-09-09T08:16:08;4.70;;;1.85;;
46377;SDS011;32083;47.360;9.650;2022-09-09T08:19:01;4.78;;;2.45;;
46377;SDS011;32083;47.360;9.650;2022-09-09T08:21:29;4.50;;;1.73;;
46377;SDS011;32083;47.360;9.650;2022-09-09T08:23:57;6.60;;;1.50;;
46377;SDS011;32083;47.360;9.650;2022-09-09T08:26:25;2.38;;;1.50;;
46377;SDS011;32083;47.360;9.650;2022-09-09T08:28:56;6.03;;;1.75;;
46377;SDS011;32083;47.360;9.650;2022-09-09T08:31:28;2.42;;;1.45;;
46377;SDS011;32083;47.360;9.650;2022-09-09T08:34:05;3.58;;;1.63;;
46377;SDS011;32083;47.360;9.650;2022-09-09T08:36:33;6.03;;;1.63;;
46377;SDS011;32083;47.360;9.650;2022-09-09T08:39:04;6.82;;;2.20;;
46377;SDS011;32083;47.360;9.650;2022-09-09T08:45:19;3.90;;;1.58;;
46377;SDS011;32083;47.360;9.650;2022-09-09T08:48:08;3.28;;;2.10;;
46377;SDS011;32083;47.360;9.650;2022-09-09T08:51:01;4.28;;;2.17;;
46377;SDS011;32083;47.360;9.650;2022-09-09T08:53:40;4.47;;;2.25;;
46377;SDS011;32083;47.360;9.650;2022-09-09T08:56:11;2.33;;;2.05;;
46377;SDS011;32083;47.360;9.650;2022-09-09T08:58:48;2.58;;;2.08;;
46377;SDS011;32083;47.360;9.650;2022-09-09T09:03:59;3.95;;;1.95;;
46377;SDS011;32083;47.360;9.650;2022-09-09T09:09:12;2.88;;;1.80;;
46377;SDS011;32083;47.360;9.650;2022-09-09T09:11:48;2.90;;;2.15;;
46377;SDS011;32083;47.360;9.650;2022-09-09T09:14:22;3.55;;;1.92;;
46377;SDS011;32083;47.360;9.650;2022-09-09T09:16:58;4.40;;;1.85;;
46377;SDS011;32083;47.360;9.650;2022-09-09T09:19:28;1.92;;;1.45;;
46377;SDS011;32083;47.360;9.650;2022-09-09T09:27:35;2.92;;;1.38;;
46377;SDS011;32083;47.360;9.650;2022-09-09T09:30:18;1.63;;;1.10;;
46377;SDS011;32083;47.360;9.650;2022-09-09T09:35:17;1.20;;;0.93;;
46377;SDS011;32083;47.360;9.650;2022-09-09T09:37:43;2.95;;;1.02;;
46377;SDS011;32083;47.360;9.650;2022-09-09T09:40:11;4.85;;;1.40;;
46377;SDS011;32083;47.360;9.650;2022-09-09T09:42:49;3.58;;;1.17;;
46377;SDS011;32083;47.360;9.650;2022-09-09T09:48:13;2.30;;;1.30;;
46377;SDS011;32083;47.360;9.650;2022-09-09T09:51:03;2.45;;;1.48;;
46377;SDS011;32083;47.360;9.650;2022-09-09T09:53:36;3.03;;;1.40;;
46377;SDS011;32083;47.360;9.650;2022-09-09T09:56:04;5.18;;;2.05;;
46377;SDS011;32083;47.360;9.650;2022-09-09T09:58:36;6.78;;;1.65;;
46377;SDS011;32083;47.360;9.650;2022-09-09T10:01:04;4.47;;;2.08;;
46377;SDS011;32083;47.360;9.650;2022-09-09T10:03:31;3.70;;;1.85;;
46377;SDS011;32083;47.360;9.650;2022-09-09T10:06:04;3.13;;;1.65;;
46377;SDS011;32083;47.360;9.650;2022-09-09T10:08:32;4.68;;;1.40;;
46377;SDS011;32083;47.360;9.650;2022-09-09T10:14:01;5.22;;;1.83;;
46377;SDS011;32083;47.360;9.650;2022-09-09T10:19:44;2.65;;;1.50;;
46377;SDS011;32083;47.360;9.650;2022-09-09T10:22:39;2.90;;;1.75;;
46377;SDS011;32083;47.360;9.650;2022-09-09T10:30:55;2.75;;;2.17;;
46377;SDS011;32083;47.360;9.650;2022-09-09T10:33:37;2.28;;;1.30;;
46377;SDS011;32083;47.360;9.650;2022-09-09T10:36:17;1.65;;;1.00;;
46377;SDS011;32083;47.360;9.650;2022-09-09T10:41:50;3.30;;;1.63;;
46377;SDS011;32083;47.360;9.650;2022-09-09T10:56:05;4.43;;;1.30;;
46377;SDS011;32083;47.360;9.650;2022-09-09T10:58:49;2.42;;;0.98;;
46377;SDS011;32083;47.360;9.650;2022-09-09T11:01:22;3.47;;;1.00;;
46377;SDS011;32083;47.360;9.650;2022-09-09T11:04:08;1.98;;;0.90;;
46377;SDS011;32083;47.360;9.650;2022-09-09T11:07:00;2.42;;;1.17;;
46377;SDS011;32083;47.360;9.650;2022-09-09T11:09:32;3.35;;;0.90;;
46377;SDS011;32083;47.360;9.650;2022-09-09T11:12:15;2.38;;;1.00;;
46377;SDS011;32083;47.360;9.650;2022-09-09T11:14:53;1.85;;;1.00;;
46377;SDS011;32083;47.360;9.650;2022-09-09T11:17:36;1.55;;;1.00;;
46377;SDS011;32083;47.360;9.650;2022-09-09T11:20:12;1.75;;;0.90;;
46377;SDS011;32083;47.360;9.650;2022-09-09T11:22:43;2.47;;;1.00;;
46377;SDS011;32083;47.360;9.650;2022-09-09T11:25:28;2.58;;;1.60;;
46377;SDS011;32083;47.360;9.650;2022-09-09T11:37:07;3.20;;;1.23;;
46377;SDS011;32083;47.360;9.650;2022-09-09T11:40:08;2.70;;;1.33;;
46377;SDS011;32083;47.360;9.650;2022-09-09T11:42:33;2.28;;;1.13;;
46377;SDS011;32083;47.360;9.650;2022-09-09T11:45:19;3.90;;;1.40;;
46377;SDS011;32083;47.360;9.650;2022-09-09T11:48:02;3.08;;;1.05;;
46377;SDS011;32083;47.360;9.650;2022-09-09T11:50:35;2.20;;;1.20;;
46377;SDS011;32083;47.360;9.650;2022-09-09T11:53:04;2.85;;;1.50;;
46377;SDS011;32083;47.360;9.650;2022-09-09T11:55:31;3.40;;;1.40;;
46377;SDS011;32083;47.360;9.650;2022-09-09T11:58:14;1.58;;;1.10;;
46377;SDS011;32083;47.360;9.650;2022-09-09T12:00:47;2.13;;;1.10;;
46377;SDS011;32083;47.360;9.650;2022-09-09T12:06:11;1.90;;;1.02;;
46377;SDS011;32083;47.360;9.650;2022-09-09T12:08:55;2.90;;;1.33;;
46377;SDS011;32083;47.360;9.650;2022-09-09T12:11:33;2.00;;;1.10;;
46377;SDS011;32083;47.360;9.650;2022-09-09T12:13:59;2.95;;;1.95;;
46377;SDS011;32083;47.360;9.650;2022-09-09T12:16:28;3.60;;;1.88;;
46377;SDS011;32083;47.360;9.650;2022-09-09T12:19:05;1.50;;;1.40;;
46377;SDS011;32083;47.360;9.650;2022-09-09T12:21:48;1.65;;;0.95;;
46377;SDS011;32083;47.360;9.650;2022-09-09T12:24:37;1.98;;;0.85;;
46377;SDS011;32083;47.360;9.650;2022-09-09T12:32:25;2.10;;;1.60;;
46377;SDS011;32083;47.360;9.650;2022-09-09T12:37:32;1.50;;;0.90;;
46377;SDS011;32083;47.360;9.650;2022-09-09T12:39:59;3.75;;;0.98;;
46377;SDS011;32083;47.360;9.650;2022-09-09T12:42:28;4.20;;;2.03;;
46377;SDS011;32083;47.360;9.650;2022-09-09T12:53:23;2.90;;;1.20;;
46377;SDS011;32083;47.360;9.650;2022-09-09T12:58:44;1.98;;;0.85;;
46377;SDS011;32083;47.360;9.650;2022-09-09T13:01:20;6.15;;;1.23;;
46377;SDS011;32083;47.360;9.650;2022-09-09T13:03:52;1.92;;;1.10;;
46377;SDS011;32083;47.360;9.650;2022-09-09T13:06:22;3.78;;;1.13;;
46377;SDS011;32083;47.360;9.650;2022-09-09T13:08:52;2.47;;;0.90;;
46377;SDS011;32083;47.360;9.650;2022-09-09T13:11:22;3.40;;;1.52;;
46377;SDS011;32083;47.360;9.650;2022-09-09T13:13:55;3.30;;;1.10;;
46377;SDS011;32083;47.360;9.650;2022-09-09T13:16:23;1.33;;;0.70;;
46377;SDS011;32083;47.360;9.650;2022-09-09T13:18:51;2.22;;;0.73;;
46377;SDS011;32083;47.360;9.650;2022-09-09T13:21:17;2.45;;;0.85;;
46377;SDS011;32083;47.360;9.650;2022-09-09T13:23:48;2.75;;;1.02;;
46377;SDS011;32083;47.360;9.650;2022-09-09T13:26:25;1.30;;;0.70;;
46377;SDS011;32083;47.360;9.650;2022-09-09T13:28:55;1.45;;;0.82;;
46377;SDS011;32083;47.360;9.650;2022-09-09T13:31:40;4.63;;;0.73;;
46377;SDS011;32083;47.360;9.650;2022-09-09T13:39:13;3.00;;;1.38;;
46377;SDS011;32083;47.360;9.650;2022-09-09T13:41:42;1.17;;;0.75;;
46377;SDS011;32083;47.360;9.650;2022-09-09T13:44:25;1.83;;;0.70;;
46377;SDS011;32083;47.360;9.650;2022-09-09T13:47:00;5.22;;;1.38;;
46377;SDS011;32083;47.360;9.650;2022-09-09T13:49:32;1.10;;;0.90;;
46377;SDS011;32083;47.360;9.650;2022-09-09T13:52:06;1.90;;;0.70;;
46377;SDS011;32083;47.360;9.650;2022-09-09T13:54:39;1.67;;;0.90;;
46377;SDS011;32083;47.360;9.650;2022-09-09T13:57:11;0.77;;;0.60;;
46377;SDS011;32083;47.360;9.650;2022-09-09T13:59:44;1.30;;;0.63;;
46377;SDS011;32083;47.360;9.650;2022-09-09T14:02:10;1.23;;;0.60;;
46377;SDS011;32083;47.360;9.650;2022-09-09T14:04:37;1.17;;;0.60;;
46377;SDS011;32083;47.360;9.650;2022-09-09T14:07:03;2.20;;;1.02;;
46377;SDS011;32083;47.360;9.650;2022-09-09T14:09:29;2.33;;;0.77;;
46377;SDS011;32083;47.360;9.650;2022-09-09T14:11:55;1.23;;;0.75;;
46377;SDS011;32083;47.360;9.650;2022-09-09T14:14:21;2.15;;;0.80;;
46377;SDS011;32083;47.360;9.650;2022-09-09T14:16:47;0.77;;;0.50;;
46377;SDS011;32083;47.360;9.650;2022-09-09T14:19:13;1.17;;;0.60;;
46377;SDS011;32083;47.360;9.650;2022-09-09T14:21:39;1.58;;;0.73;;
46377;SDS011;32083;47.360;9.650;2022-09-09T14:24:05;3.47;;;1.10;;
46377;SDS011;32083;47.360;9.650;2022-09-09T14:26:31;1.60;;;0.75;;
46377;SDS011;32083;47.360;9.650;2022-09-09T14:28:57;3.38;;;1.40;;
46377;SDS011;32083;47.360;9.650;2022-09-09T14:31:24;0.80;;;0.52;;
46377;SDS011;32083;47.360;9.650;2022-09-09T14:33:50;0.88;;;0.70;;
46377;SDS011;32083;47.360;9.650;2022-09-09T14:36:16;1.95;;;0.88;;
46377;SDS011;32083;47.360;9.650;2022-09-09T14:38:42;1.50;;;0.60;;
46377;SDS011;32083;47.360;9.650;2022-09-09T14:41:13;2.17;;;0.70;;
46377;SDS011;32083;47.360;9.650;2022-09-09T14:43:44;1.77;;;0.68;;
46377;SDS011;32083;47.360;9.650;2022-09-09T14:46:11;1.92;;;0.80;;
46377;SDS011;32083;47.360;9.650;2022-09-09T14:48:39;1.95;;;0.80;;
46377;SDS011;32083;47.360;9.650;2022-09-09T14:51:09;1.77;;;0.90;;
46377;SDS011;32083;47.360;9.650;2022-09-09T14:53:38;3.03;;;1.07;;
46377;SDS011;32083;47.360;9.650;2022-09-09T14:56:05;1.65;;;0.80;;
46377;SDS011;32083;47.360;9.650;2022-09-09T14:58:33;2.65;;;1.00;;
46377;SDS011;32083;47.360;9.650;2022-09-09T15:01:10;3.10;;;0.90;;
46377;SDS011;32083;47.360;9.650;2022-09-09T15:03:38;1.15;;;0.80;;
46377;SDS011;32083;47.360;9.650;2022-09-09T15:06:06;1.92;;;1.42;;
46377;SDS011;32083;47.360;9.650;2022-09-09T15:08:37;4.72;;;1.15;;
46377;SDS011;32083;47.360;9.650;2022-09-09T15:11:06;4.57;;;1.20;;
46377;SDS011;32083;47.360;9.650;2022-09-09T15:13:36;1.60;;;0.80;;
46377;SDS011;32083;47.360;9.650;2022-09-09T15:16:05;1.77;;;0.70;;
46377;SDS011;32083;47.360;9.650;2022-09-09T15:18:34;1.77;;;1.10;;
46377;SDS011;32083;47.360;9.650;2022-09-09T15:21:04;1.52;;;0.98;;
46377;SDS011;32083;47.360;9.650;2022-09-09T15:23:34;2.05;;;0.70;;
46377;SDS011;32083;47.360;9.650;2022-09-09T15:26:01;1.95;;;0.80;;
46377;SDS011;32083;47.360;9.650;2022-09-09T15:28:27;1.52;;;1.10;;
46377;SDS011;32083;47.360;9.650;2022-09-09T15:30:53;1.30;;;1.00;;
46377;SDS011;32083;47.360;9.650;2022-09-09T15:33:20;1.10;;;0.73;;
46377;SDS011;32083;47.360;9.650;2022-09-09T15:35:47;2.83;;;0.90;;
46377;SDS011;32083;47.360;9.650;2022-09-09T15:38:15;3.47;;;0.77;;
46377;SDS011;32083;47.360;9.650;2022-09-09T15:40:42;2.13;;;0.70;;
46377;SDS011;32083;47.360;9.650;2022-09-09T15:43:08;1.63;;;0.85;;
46377;SDS011;32083;47.360;9.650;2022-09-09T15:45:35;1.17;;;0.70;;
46377;SDS011;32083;47.360;9.650;2022-09-09T15:48:02;2.05;;;0.70;;
46377;SDS011;32083;47.360;9.650;2022-09-09T15:50:29;1.90;;;0.95;;
46377;SDS011;32083;47.360;9.650;2022-09-09T15:52:58;1.48;;;1.10;;
46377;SDS011;32083;47.360;9.650;2022-09-09T15:55:25;4.40;;;1.13;;
46377;SDS011;32083;47.360;9.650;2022-09-09T15:57:51;1.40;;;0.80;;
46377;SDS011;32083;47.360;9.650;2022-09-09T16:00:18;1.75;;;0.80;;
46377;SDS011;32083;47.360;9.650;2022-09-09T16:02:48;1.60;;;0.95;;
46377;SDS011;32083;47.360;9.650;2022-09-09T16:05:14;3.17;;;1.50;;
46377;SDS011;32083;47.360;9.650;2022-09-09T16:07:40;1.92;;;0.80;;
46377;SDS011;32083;47.360;9.650;2022-09-09T16:10:07;2.20;;;0.82;;
46377;SDS011;32083;47.360;9.650;2022-09-09T16:12:34;4.30;;;0.90;;
46377;SDS011;32083;47.360;9.650;2022-09-09T16:15:00;1.85;;;0.70;;
46377;SDS011;32083;47.360;9.650;2022-09-09T16:17:26;2.45;;;0.93;;
46377;SDS011;32083;47.360;9.650;2022-09-09T16:19:52;1.70;;;0.80;;
46377;SDS011;32083;47.360;9.650;2022-09-09T16:22:19;1.00;;;0.60;;
46377;SDS011;32083;47.360;9.650;2022-09-09T16:24:45;1.52;;;0.70;;
46377;SDS011;32083;47.360;9.650;2022-09-09T16:27:11;1.95;;;1.00;;
46377;SDS011;32083;47.360;9.650;2022-09-09T16:29:37;1.63;;;0.70;;
46377;SDS011;32083;47.360;9.650;2022-09-09T16:32:03;1.73;;;0.75;;
46377;SDS011;32083;47.360;9.650;2022-09-09T16:34:30;2.55;;;1.00;;
46377;SDS011;32083;47.360;9.650;2022-09-09T16:36:56;1.33;;;1.00;;
46377;SDS011;32083;47.360;9.650;2022-09-09T16:39:22;5.63;;;1.15;;
46377;SDS011;32083;47.360;9.650;2022-09-09T16:41:48;1.80;;;1.10;;
46377;SDS011;32083;47.360;9.650;2022-09-09T16:44:15;1.73;;;1.25;;
46377;SDS011;32083;47.360;9.650;2022-09-09T16:46:43;1.80;;;0.90;;
46377;SDS011;32083;47.360;9.650;2022-09-09T16:49:12;2.70;;;1.30;;
46377;SDS011;32083;47.360;9.650;2022-09-09T16:51:44;3.15;;;1.40;;
46377;SDS011;32083;47.360;9.650;2022-09-09T16:54:15;1.83;;;0.80;;
46377;SDS011;32083;47.360;9.650;2022-09-09T16:56:42;1.35;;;1.00;;
46377;SDS011;32083;47.360;9.650;2022-09-09T16:59:14;1.98;;;1.10;;
46377;SDS011;32083;47.360;9.650;2022-09-09T17:01:45;1.77;;;1.10;;
46377;SDS011;32083;47.360;9.650;2022-09-09T17:04:13;2.78;;;1.50;;
46377;SDS011;32083;47.360;9.650;2022-09-09T17:06:45;1.83;;;1.30;;
46377;SDS011;32083;47.360;9.650;2022-09-09T17:09:14;1.95;;;1.00;;
46377;SDS011;32083;47.360;9.650;2022-09-09T17:11:40;1.65;;;1.20;;
46377;SDS011;32083;47.360;9.650;2022-09-09T17:14:07;3.25;;;1.35;;
46377;SDS011;32083;47.360;9.650;2022-09-09T17:16:36;3.45;;;1.77;;
46377;SDS011;32083;47.360;9.650;2022-09-09T17:19:04;1.63;;;1.10;;
46377;SDS011;32083;47.360;9.650;2022-09-09T17:21:31;2.95;;;2.08;;
46377;SDS011;32083;47.360;9.650;2022-09-09T17:23:57;2.63;;;1.35;;
46377;SDS011;32083;47.360;9.650;2022-09-09T17:26:25;3.35;;;1.80;;
46377;SDS011;32083;47.360;9.650;2022-09-09T17:28:53;1.92;;;1.63;;
46377;SDS011;32083;47.360;9.650;2022-09-09T17:31:21;3.00;;;1.40;;
46377;SDS011;32083;47.360;9.650;2022-09-09T17:33:48;4.30;;;1.75;;
46377;SDS011;32083;47.360;9.650;2022-09-09T17:36:25;2.38;;;1.30;;
46377;SDS011;32083;47.360;9.650;2022-09-09T17:38:53;3.00;;;2.00;;
46377;SDS011;32083;47.360;9.650;2022-09-09T17:41:24;2.42;;;1.70;;
46377;SDS011;32083;47.360;9.650;2022-09-09T17:43:53;3.97;;;1.92;;
46377;SDS011;32083;47.360;9.650;2022-09-09T17:48:47;5.55;;;2.28;;
46377;SDS011;32083;47.360;9.650;2022-09-09T17:51:17;3.08;;;2.15;;
46377;SDS011;32083;47.360;9.650;2022-09-09T17:53:48;3.78;;;2.63;;
46377;SDS011;32083;47.360;9.650;2022-09-09T17:56:17;6.38;;;2.85;;
46377;SDS011;32083;47.360;9.650;2022-09-09T17:58:48;2.45;;;2.00;;
46377;SDS011;32083;47.360;9.650;2022-09-09T18:01:19;4.10;;;2.10;;
46377;SDS011;32083;47.360;9.650;2022-09-09T18:03:47;3.27;;;1.87;;
46377;SDS011;32083;47.360;9.650;2022-09-09T18:06:21;3.33;;;1.73;;
46377;SDS011;32083;47.360;9.650;2022-09-09T18:08:55;4.78;;;2.10;;
46377;SDS011;32083;47.360;9.650;2022-09-09T18:11:28;3.65;;;2.05;;
46377;SDS011;32083;47.360;9.650;2022-09-09T18:13:57;2.60;;;1.60;;
46377;SDS011;32083;47.360;9.650;2022-09-09T18:16:26;2.53;;;1.65;;
46377;SDS011;32083;47.360;9.650;2022-09-09T18:18:56;2.78;;;1.60;;
46377;SDS011;32083;47.360;9.650;2022-09-09T18:21:24;19.38;;;2.63;;
46377;SDS011;32083;47.360;9.650;2022-09-09T18:23:52;3.83;;;1.92;;
46377;SDS011;32083;47.360;9.650;2022-09-09T18:26:22;1.80;;;1.33;;
46377;SDS011;32083;47.360;9.650;2022-09-09T18:29:00;2.97;;;1.30;;
46377;SDS011;32083;47.360;9.650;2022-09-09T18:31:30;3.25;;;1.20;;
46377;SDS011;32083;47.360;9.650;2022-09-09T18:33:57;1.25;;;0.90;;
46377;SDS011;32083;47.360;9.650;2022-09-09T18:36:26;2.25;;;1.70;;
46377;SDS011;32083;47.360;9.650;2022-09-09T18:38:57;3.35;;;2.13;;
46377;SDS011;32083;47.360;9.650;2022-09-09T18:41:26;4.63;;;1.50;;
46377;SDS011;32083;47.360;9.650;2022-09-09T18:43:54;4.13;;;1.65;;
46377;SDS011;32083;47.360;9.650;2022-09-09T18:46:22;1.50;;;1.10;;
46377;SDS011;32083;47.360;9.650;2022-09-09T18:48:50;2.40;;;1.70;;
46377;SDS011;32083;47.360;9.650;2022-09-09T18:51:17;3.63;;;1.48;;
46377;SDS011;32083;47.360;9.650;2022-09-09T18:53:51;2.30;;;1.48;;
46377;SDS011;32083;47.360;9.650;2022-09-09T18:56:19;1.30;;;1.13;;
46377;SDS011;32083;47.360;9.650;2022-09-09T18:58:50;3.05;;;2.17;;
46377;SDS011;32083;47.360;9.650;2022-09-09T19:01:21;2.17;;;1.13;;
46377;SDS011;32083;47.360;9.650;2022-09-09T19:03:48;3.63;;;1.77;;
46377;SDS011;32083;47.360;9.650;2022-09-09T19:06:15;1.95;;;1.42;;
46377;SDS011;32083;47.360;9.650;2022-09-09T19:08:44;2.28;;;1.25;;
46377;SDS011;32083;47.360;9.650;2022-09-09T19:11:15;5.50;;;2.00;;
46377;SDS011;32083;47.360;9.650;2022-09-09T19:13:50;2.72;;;1.60;;
46377;SDS011;32083;47.360;9.650;2022-09-09T19:16:17;2.92;;;1.52;;
46377;SDS011;32083;47.360;9.650;2022-09-09T19:18:44;3.63;;;1.42;;
46377;SDS011;32083;47.360;9.650;2022-09-09T19:23:53;2.05;;;1.20;;
46377;SDS011;32083;47.360;9.650;2022-09-09T19:26:24;1.52;;;0.88;;
46377;SDS011;32083;47.360;9.650;2022-09-09T19:28:51;2.92;;;1.90;;
46377;SDS011;32083;47.360;9.650;2022-09-09T19:31:18;5.25;;;1.40;;
46377;SDS011;32083;47.360;9.650;2022-09-09T19:33:45;2.25;;;1.13;;
46377;SDS011;32083;47.360;9.650;2022-09-09T19:36:13;4.03;;;1.00;;
46377;SDS011;32083;47.360;9.650;2022-09-09T19:38:42;2.60;;;1.23;;
46377;SDS011;32083;47.360;9.650;2022-09-09T19:41:17;1.85;;;1.10;;
46377;SDS011;32083;47.360;9.650;2022-09-09T19:43:47;2.90;;;1.10;;
46377;SDS011;32083;47.360;9.650;2022-09-09T19:46:15;3.78;;;2.22;;
46377;SDS011;32083;47.360;9.650;2022-09-09T19:48:44;2.53;;;1.02;;
46377;SDS011;32083;47.360;9.650;2022-09-09T19:51:12;3.55;;;1.40;;
46377;SDS011;32083;47.360;9.650;2022-09-09T19:53:44;2.63;;;1.30;;
46377;SDS011;32083;47.360;9.650;2022-09-09T19:56:15;3.38;;;1.10;;
46377;SDS011;32083;47.360;9.650;2022-09-09T19:58:43;4.57;;;1.50;;
46377;SDS011;32083;47.360;9.650;2022-09-09T20:01:12;2.83;;;1.20;;
46377;SDS011;32083;47.360;9.650;2022-09-09T20:03:39;4.18;;;2.15;;
46377;SDS011;32083;47.360;9.650;2022-09-09T20:06:08;2.60;;;2.00;;
46377;SDS011;32083;47.360;9.650;2022-09-09T20:08:37;2.10;;;1.60;;
46377;SDS011;32083;47.360;9.650;2022-09-09T20:11:04;4.90;;;1.77;;
46377;SDS011;32083;47.360;9.650;2022-09-09T20:13:32;3.38;;;1.67;;
46377;SDS011;32083;47.360;9.650;2022-09-09T20:16:01;2.65;;;1.40;;
46377;SDS011;32083;47.360;9.650;2022-09-09T20:18:30;3.92;;;1.33;;
46377;SDS011;32083;47.360;9.650;2022-09-09T20:20:58;3.63;;;1.40;;
46377;SDS011;32083;47.360;9.650;2022-09-09T20:23:29;3.25;;;1.30;;
46377;SDS011;32083;47.360;9.650;2022-09-09T20:25:59;6.20;;;2.10;;
46377;SDS011;32083;47.360;9.650;2022-09-09T20:28:27;3.78;;;1.73;;
46377;SDS011;32083;47.360;9.650;2022-09-09T20:30:53;3.65;;;1.75;;
46377;SDS011;32083;47.360;9.650;2022-09-09T20:33:20;3.65;;;1.60;;
46377;SDS011;32083;47.360;9.650;2022-09-09T20:35:46;3.03;;;1.35;;